FCO weather

Leonardo da Vinci–Fiumicino Airport
Rome, Lazio, Italy

Public forecast

Using degrees Celsius for public forecast. Weather courtesy of forecast.io.

METAR (pilot weather report)

Retrieved 2018/01/20 16:20 UTC (18 minutes ago):

LIRF 201620Z 25007KT CAVOK 12/07 Q1012 NOSIG

TAF (pilot weather forecast)

Retrieved 2018/01/20 12:00 UTC (5 hours ago):

TAF LIRF 201100Z 2012/2118 27010KT 9999 SCT030 BECMG 2015/2017 VRB05KT BECMG 2103/2106 29010KT